createdAt,value
2019-03-02T00:02:06.643Z,85.93
2019-03-02T00:04:36.272Z,72.27
2019-03-02T00:07:08.060Z,77.00
2019-03-02T00:09:38.457Z,75.13
2019-03-02T00:12:09.343Z,73.50
2019-03-02T00:14:39.374Z,71.37
2019-03-02T00:17:10.164Z,80.37
2019-03-02T00:19:41.948Z,71.63
2019-03-02T00:22:12.493Z,84.90
2019-03-02T00:24:42.329Z,73.80
2019-03-02T00:27:13.292Z,70.83
2019-03-02T00:29:45.869Z,72.53
2019-03-02T00:32:14.122Z,73.30
2019-03-02T00:34:43.726Z,69.80
2019-03-02T00:37:14.750Z,74.03
2019-03-02T00:39:44.231Z,76.83
2019-03-02T00:42:17.008Z,72.10
2019-03-02T00:44:45.090Z,73.87
2019-03-02T00:47:14.606Z,79.97
2019-03-02T00:49:44.083Z,70.83
2019-03-02T00:52:14.895Z,79.47
2019-03-02T00:54:47.349Z,72.47
2019-03-02T00:57:18.737Z,68.40
2019-03-02T00:59:48.022Z,80.47
2019-03-02T01:02:17.539Z,77.27
2019-03-02T01:04:47.519Z,73.13
2019-03-02T01:07:20.714Z,65.53
2019-03-02T01:09:49.435Z,69.30
2019-03-02T01:12:19.247Z,78.87
2019-03-02T01:14:48.731Z,74.97
2019-03-02T01:17:19.847Z,65.80
2019-03-02T01:19:52.601Z,63.47
2019-03-02T01:22:22.730Z,67.10
2019-03-02T01:24:52.312Z,68.53
2019-03-02T01:27:22.127Z,61.60
2019-03-02T01:29:54.380Z,66.73
2019-03-02T01:32:22.835Z,70.30
2019-03-02T01:34:52.314Z,68.47
2019-03-02T01:37:23.330Z,66.80
2019-03-02T01:39:52.815Z,78.67
2019-03-02T01:42:25.881Z,76.35
2019-03-02T01:44:53.746Z,68.20
2019-03-02T01:47:24.558Z,77.00
2019-03-02T01:49:54.047Z,81.00
2019-03-02T01:52:23.583Z,70.55
2019-03-02T01:54:55.733Z,66.17
2019-03-02T01:57:25.610Z,58.60
2019-03-02T01:59:55.091Z,62.00
2019-03-02T02:02:24.611Z,59.07
2019-03-02T02:04:54.553Z,51.92
2019-03-02T02:07:27.139Z,47.83
2019-03-02T02:09:56.632Z,51.98
2019-03-02T02:12:28.847Z,47.78
2019-03-02T02:14:57.714Z,43.17
2019-03-02T02:17:28.479Z,39.88
2019-03-02T02:19:58.001Z,42.50
2019-03-02T02:22:27.482Z,43.98
2019-03-02T02:25:00.595Z,47.20
2019-03-02T02:27:28.207Z,57.70
2019-03-02T02:29:57.818Z,71.93
2019-03-02T02:32:27.311Z,58.77
2019-03-02T02:35:01.036Z,81.65
2019-03-02T02:37:32.343Z,75.72
2019-03-02T02:39:59.093Z,81.72
2019-03-02T02:42:28.572Z,71.35
2019-03-02T02:44:58.083Z,58.73
2019-03-02T02:47:29.050Z,64.32
2019-03-02T02:49:58.585Z,55.98
2019-03-02T02:52:29.585Z,62.13
2019-03-02T02:55:02.356Z,53.13
2019-03-02T02:57:33.624Z,73.70
2019-03-02T03:00:02.932Z,53.15
2019-03-02T03:02:33.894Z,58.70
2019-03-02T03:05:03.407Z,55.67
2019-03-02T03:07:34.399Z,55.33
2019-03-02T03:10:05.932Z,64.47
2019-03-02T03:12:36.904Z,50.55
2019-03-02T03:15:07.147Z,50.83
2019-03-02T03:17:38.340Z,51.42
2019-03-02T03:20:10.729Z,65.35
2019-03-02T03:22:41.052Z,56.58
2019-03-02T03:25:13.913Z,57.08
2019-03-02T03:27:47.659Z,75.57
2019-03-02T03:30:15.144Z,75.52
2019-03-02T03:32:54.153Z,78.30
2019-03-02T03:35:19.751Z,69.10
2019-03-02T03:37:51.271Z,66.10
2019-03-02T03:40:25.377Z,72.85
2019-03-02T03:42:51.940Z,86.80
2019-03-02T03:45:21.388Z,83.12
2019-03-02T03:47:52.175Z,69.62
2019-03-02T03:50:21.704Z,67.00
2019-03-02T03:52:51.187Z,63.00
2019-03-02T03:55:25.051Z,59.53
2019-03-02T03:57:55.676Z,57.17
2019-03-02T04:00:25.398Z,55.38
2019-03-02T04:02:54.901Z,62.10
2019-03-02T04:05:24.390Z,54.18
2019-03-02T04:07:53.842Z,51.58
2019-03-02T04:10:26.183Z,51.00
2019-03-02T04:13:03.873Z,53.92
2019-03-02T04:15:27.000Z,51.20
2019-03-02T04:17:56.555Z,58.20
2019-03-02T04:20:29.261Z,60.35
2019-03-02T04:23:01.843Z,49.80
2019-03-02T04:25:32.631Z,55.40
2019-03-02T04:28:02.146Z,49.13
2019-03-02T04:30:32.973Z,56.25
2019-03-02T04:33:06.022Z,49.00
2019-03-02T04:35:35.246Z,47.13
2019-03-02T04:38:04.728Z,49.48
2019-03-02T04:40:34.214Z,49.05
2019-03-02T04:43:03.728Z,49.70
2019-03-02T04:45:36.383Z,47.73
2019-03-02T04:48:04.729Z,44.23
2019-03-02T04:50:35.430Z,40.03
2019-03-02T04:53:04.958Z,47.90
2019-03-02T04:55:34.456Z,46.95
2019-03-02T04:58:03.909Z,46.20
2019-03-02T05:00:34.795Z,48.60
2019-03-02T05:03:04.311Z,43.40
2019-03-02T05:05:34.999Z,41.20
2019-03-02T05:08:05.291Z,42.95
2019-03-02T05:10:35.699Z,41.88
2019-03-02T05:13:05.217Z,50.15
2019-03-02T05:15:34.704Z,41.48
2019-03-02T05:18:04.155Z,43.87
2019-03-02T05:20:33.638Z,41.63
2019-03-02T05:23:03.089Z,42.35
2019-03-02T05:25:32.677Z,44.13
2019-03-02T05:28:03.812Z,42.80
2019-03-02T05:30:34.536Z,44.18
2019-03-02T05:33:04.052Z,47.10
2019-03-02T05:35:33.536Z,43.30
2019-03-02T05:38:03.055Z,42.67
2019-03-02T05:40:33.834Z,42.53
2019-03-02T05:43:03.297Z,49.27
2019-03-02T05:45:32.772Z,41.73
2019-03-02T05:48:04.862Z,42.93
2019-03-02T05:50:33.310Z,41.25
2019-03-02T05:53:02.746Z,43.70
2019-03-02T05:55:32.206Z,41.35
2019-03-02T05:58:01.619Z,40.10
2019-03-02T06:00:33.838Z,44.35
2019-03-02T06:03:03.538Z,42.78
2019-03-02T06:05:34.360Z,39.10
2019-03-02T06:08:03.770Z,42.78
2019-03-02T06:10:33.219Z,36.77
2019-03-02T06:13:02.711Z,40.17
2019-03-02T06:15:32.229Z,36.28
2019-03-02T06:18:04.366Z,44.38
2019-03-02T06:20:35.440Z,38.20
2019-03-02T06:23:03.748Z,38.58
2019-03-02T06:25:33.193Z,35.00
2019-03-02T06:28:02.611Z,39.60
2019-03-02T06:30:32.140Z,42.05
2019-03-02T06:33:01.554Z,38.20
2019-03-02T06:35:32.860Z,40.45
2019-03-02T06:38:03.185Z,40.85
2019-03-02T06:40:32.697Z,42.45
2019-03-02T06:43:02.110Z,39.40
2019-03-02T06:45:32.827Z,39.23
2019-03-02T06:48:02.247Z,37.17
2019-03-02T06:50:35.676Z,36.42
2019-03-02T06:53:04.098Z,36.25
2019-03-02T06:55:34.842Z,38.60
2019-03-02T06:58:04.309Z,40.95
2019-03-02T07:00:33.750Z,38.00
2019-03-02T07:03:03.234Z,39.92
2019-03-02T07:05:34.017Z,38.55
2019-03-02T07:08:03.785Z,42.33
2019-03-02T07:10:33.312Z,38.78
2019-03-02T07:13:04.361Z,39.50
2019-03-02T07:15:33.877Z,38.13
2019-03-02T07:18:10.705Z,38.35
2019-03-02T07:20:41.857Z,41.58
2019-03-02T07:23:11.349Z,39.50
2019-03-02T07:25:44.254Z,38.78
2019-03-02T07:28:13.381Z,35.85
2019-03-02T07:30:44.371Z,38.00
2019-03-02T07:33:13.799Z,35.95
2019-03-02T07:35:44.536Z,39.92
2019-03-02T07:38:16.914Z,34.13
2019-03-02T07:40:47.122Z,37.15
2019-03-02T07:43:16.630Z,39.92
2019-03-02T07:45:46.087Z,36.03
2019-03-02T07:48:15.582Z,33.53
2019-03-02T07:50:46.371Z,34.98
2019-03-02T07:53:15.892Z,31.35
2019-03-02T07:55:46.680Z,35.90
2019-03-02T07:58:16.639Z,33.92
2019-03-02T08:00:48.841Z,33.50
2019-03-02T08:03:18.356Z,37.40
2019-03-02T08:05:50.810Z,35.15
2019-03-02T08:08:18.919Z,35.52
2019-03-02T08:10:48.343Z,32.33
2019-03-02T08:13:17.870Z,31.23
2019-03-02T08:15:48.551Z,33.20
2019-03-02T08:18:18.078Z,31.45
2019-03-02T08:20:48.772Z,32.77
2019-03-02T08:23:18.291Z,34.98
2019-03-02T08:25:47.702Z,30.17
2019-03-02T08:28:17.152Z,33.17
2019-03-02T08:30:46.649Z,28.38
2019-03-02T08:33:16.471Z,32.93
2019-03-02T08:35:48.119Z,27.15
2019-03-02T08:38:17.166Z,28.83
2019-03-02T08:40:46.583Z,27.73
2019-03-02T08:43:16.398Z,26.67
2019-03-02T08:45:47.656Z,26.95
2019-03-02T08:48:17.107Z,28.30
2019-03-02T08:50:49.812Z,26.73
2019-03-02T08:53:17.608Z,23.50
2019-03-02T08:55:48.286Z,27.17
2019-03-02T08:58:17.739Z,26.37
2019-03-02T09:00:48.530Z,26.87
2019-03-02T09:03:18.052Z,29.40
2019-03-02T09:05:51.409Z,27.77
2019-03-02T09:08:18.682Z,28.60
2019-03-02T09:10:49.169Z,34.80
2019-03-02T09:13:19.796Z,32.23
2019-03-02T09:15:50.691Z,27.80
2019-03-02T09:18:20.302Z,30.33
2019-03-02T09:20:49.783Z,30.60
2019-03-02T09:23:19.303Z,30.97
2019-03-02T09:25:48.823Z,32.80
2019-03-02T09:28:18.344Z,35.00
2019-03-02T09:30:47.859Z,32.87
2019-03-02T09:33:17.276Z,33.83
2019-03-02T09:35:48.668Z,31.77
2019-03-02T09:38:20.937Z,32.43
2019-03-02T09:40:49.305Z,31.47
2019-03-02T09:43:19.921Z,33.70
2019-03-02T09:45:49.439Z,33.53
2019-03-02T09:48:21.030Z,39.20
2019-03-02T09:50:50.059Z,33.07
2019-03-02T09:53:19.540Z,35.07
2019-03-02T09:55:51.931Z,32.20
2019-03-02T09:58:23.657Z,37.50
2019-03-02T10:00:51.315Z,36.27
2019-03-02T10:03:23.008Z,35.70
2019-03-02T10:05:53.235Z,35.00
2019-03-02T10:08:22.718Z,38.20
2019-03-02T10:10:52.232Z,35.87
2019-03-02T10:13:21.714Z,41.70
2019-03-02T10:15:51.228Z,45.30
2019-03-02T10:18:20.707Z,40.43
2019-03-02T10:20:51.445Z,40.50
2019-03-02T10:23:21.006Z,37.60
2019-03-02T10:25:51.739Z,40.53
2019-03-02T10:28:21.228Z,43.07
2019-03-02T10:30:51.117Z,38.30
2019-03-02T10:33:20.599Z,37.57
2019-03-02T10:35:53.272Z,35.43
2019-03-02T10:38:22.430Z,33.87
2019-03-02T10:40:53.450Z,44.80
2019-03-02T10:43:22.943Z,37.57
2019-03-02T10:45:54.670Z,32.27
2019-03-02T10:48:24.134Z,36.97
2019-03-02T10:50:55.957Z,35.90
2019-03-02T10:53:25.479Z,38.27
2019-03-02T10:55:56.261Z,36.30
2019-03-02T10:58:25.666Z,34.30
2019-03-02T11:00:56.499Z,41.43
2019-03-02T11:03:27.912Z,33.20
2019-03-02T11:06:18.471Z,30.87
2019-03-02T11:09:06.075Z,32.40
2019-03-02T11:11:38.122Z,35.93
2019-03-02T11:14:09.248Z,32.57
2019-03-02T11:16:44.535Z,33.07
2019-03-02T11:19:20.330Z,32.83
2019-03-02T11:22:01.814Z,39.63
2019-03-02T11:24:35.631Z,30.03
2019-03-02T11:27:13.175Z,32.70
2019-03-02T11:29:52.282Z,37.80
2019-03-02T11:32:26.155Z,33.17
2019-03-02T11:35:06.716Z,28.30
2019-03-02T11:37:43.386Z,29.37
2019-03-02T11:40:33.093Z,25.40
2019-03-02T11:43:12.930Z,31.27
2019-03-02T11:45:58.554Z,30.70
2019-03-02T11:48:56.738Z,29.03
2019-03-02T11:51:31.151Z,30.77
2019-03-02T11:54:20.324Z,30.27
2019-03-02T11:56:55.101Z,31.83
2019-03-02T11:59:31.623Z,28.60
2019-03-02T12:02:04.347Z,29.03
2019-03-02T12:04:35.490Z,30.20
2019-03-02T12:07:18.500Z,30.30
2019-03-02T12:10:06.346Z,27.83
2019-03-02T12:12:42.051Z,30.00
2019-03-02T12:15:13.307Z,30.93
2019-03-02T12:17:57.935Z,28.07
2019-03-02T12:20:41.304Z,32.23
2019-03-02T12:23:10.655Z,28.30
2019-03-02T12:25:43.128Z,29.87
2019-03-02T12:28:17.466Z,29.03
2019-03-02T12:30:55.817Z,32.43
2019-03-02T12:33:35.679Z,26.70
2019-03-02T12:36:08.211Z,29.70
2019-03-02T12:38:44.589Z,30.20
2019-03-02T12:41:17.507Z,32.07
2019-03-02T12:44:03.842Z,32.13
2019-03-02T12:46:55.113Z,29.80
2019-03-02T12:49:24.878Z,27.80
2019-03-02T12:51:57.505Z,30.57
2019-03-02T12:54:39.165Z,32.77
2019-03-02T12:57:16.142Z,34.20
2019-03-02T13:00:05.240Z,29.10
2019-03-02T13:02:51.294Z,30.23
2019-03-02T13:05:22.887Z,34.47
2019-03-02T13:07:54.828Z,32.90
2019-03-02T13:10:27.540Z,30.67
2019-03-02T13:13:10.867Z,29.17
2019-03-02T13:15:49.271Z,30.70
2019-03-02T13:18:23.124Z,27.60
2019-03-02T13:21:08.092Z,30.70
2019-03-02T13:23:42.570Z,31.80
2019-03-02T13:26:21.145Z,29.57
2019-03-02T13:28:52.262Z,30.13
2019-03-02T13:31:26.123Z,28.90
2019-03-02T13:34:13.435Z,32.13
2019-03-02T13:36:47.315Z,31.33
2019-03-02T13:39:24.087Z,31.60
2019-03-02T13:42:00.996Z,27.60
2019-03-02T13:44:35.027Z,27.43
2019-03-02T13:47:10.599Z,29.73
2019-03-02T13:49:49.456Z,28.17
2019-03-02T13:52:24.361Z,31.80
2019-03-02T13:55:01.492Z,27.43
2019-03-02T13:57:34.111Z,28.00
2019-03-02T14:00:23.356Z,25.63
2019-03-02T14:02:57.283Z,30.37
2019-03-02T14:05:28.548Z,27.40
2019-03-02T14:08:14.608Z,30.20
2019-03-02T14:11:02.898Z,28.70
2019-03-02T14:13:34.163Z,27.63
2019-03-02T14:16:23.031Z,31.20
2019-03-02T14:18:57.335Z,31.03
2019-03-02T14:21:29.775Z,34.70
2019-03-02T14:24:03.983Z,30.07
2019-03-02T14:26:44.002Z,32.23
2019-03-02T14:29:15.226Z,36.03
2019-03-02T14:31:49.298Z,35.40
2019-03-02T14:34:20.416Z,33.23
2019-03-02T14:36:52.867Z,29.33
2019-03-02T14:39:23.987Z,35.03
2019-03-02T14:42:07.884Z,35.30
2019-03-02T14:44:39.722Z,32.93
2019-03-02T14:47:14.979Z,35.90
2019-03-02T14:49:46.028Z,30.23
2019-03-02T14:52:18.488Z,30.60
2019-03-02T14:54:58.339Z,33.03
2019-03-02T14:57:35.215Z,29.17
2019-03-02T15:00:09.247Z,35.30
2019-03-02T15:02:44.571Z,29.47
2019-03-02T15:05:16.041Z,27.70
2019-03-02T15:07:58.875Z,26.10
2019-03-02T15:10:36.806Z,24.00
2019-03-02T15:13:19.534Z,27.93
2019-03-02T15:16:02.491Z,22.17
2019-03-02T15:18:42.936Z,24.00
2019-03-02T15:21:13.981Z,21.57
2019-03-02T15:23:48.568Z,22.03
2019-03-02T15:26:19.692Z,26.00
2019-03-02T15:28:50.843Z,22.40
2019-03-02T15:31:26.280Z,25.40
2019-03-02T15:33:57.435Z,23.27
2019-03-02T15:36:47.791Z,23.33
2019-03-02T15:39:36.463Z,23.83
2019-03-02T15:42:22.551Z,27.17
2019-03-02T15:44:53.745Z,26.57
2019-03-02T15:47:28.725Z,27.80
2019-03-02T15:50:02.485Z,32.87
2019-03-02T15:52:40.084Z,25.50
2019-03-02T15:55:23.430Z,23.40
2019-03-02T15:58:09.424Z,26.63
2019-03-02T16:00:40.553Z,24.13
2019-03-02T16:03:15.132Z,20.53
2019-03-02T16:05:47.892Z,26.67
2019-03-02T16:08:18.419Z,22.57
2019-03-02T16:10:59.771Z,22.17
2019-03-02T16:13:33.747Z,20.83
2019-03-02T16:16:14.884Z,20.77
2019-03-02T16:18:49.238Z,22.40
2019-03-02T16:21:19.567Z,21.70
2019-03-02T16:24:00.356Z,23.30
2019-03-02T16:26:31.574Z,25.00
2019-03-02T16:29:02.889Z,24.50
2019-03-02T16:31:41.162Z,30.10
2019-03-02T16:34:16.593Z,35.00
2019-03-02T16:37:03.906Z,26.87
2019-03-02T16:39:51.308Z,26.93
2019-03-02T16:42:22.427Z,24.50
2019-03-02T16:45:02.695Z,24.43
2019-03-02T16:47:37.740Z,23.10
2019-03-02T16:50:16.824Z,18.23
2019-03-02T16:52:48.851Z,21.63
2019-03-02T16:55:32.120Z,21.00
2019-03-02T16:58:09.276Z,21.63
2019-03-02T17:00:56.191Z,19.33
2019-03-02T17:03:27.315Z,22.83
2019-03-02T17:05:58.462Z,21.23
2019-03-02T17:08:45.799Z,21.23
2019-03-02T17:11:25.755Z,22.70
2019-03-02T17:13:59.316Z,21.80
2019-03-02T17:16:32.194Z,20.50
2019-03-02T17:19:19.376Z,22.80
2019-03-02T17:21:56.586Z,19.77
2019-03-02T17:24:46.758Z,21.43
2019-03-02T17:27:23.754Z,21.90
2019-03-02T17:30:11.047Z,27.67
2019-03-02T17:32:51.028Z,24.50
2019-03-02T17:35:25.443Z,23.17
2019-03-02T17:37:55.427Z,24.43
2019-03-02T17:40:29.608Z,22.70
2019-03-02T17:43:03.718Z,21.80
2019-03-02T17:45:37.941Z,29.80
2019-03-02T17:48:09.295Z,26.77
2019-03-02T17:50:41.715Z,25.20
2019-03-02T17:53:16.291Z,26.13
2019-03-02T17:55:50.099Z,23.00
2019-03-02T17:58:21.263Z,23.40
2019-03-02T18:01:10.188Z,23.90
2019-03-02T18:03:50.095Z,23.27
2019-03-02T18:06:27.384Z,23.87
2019-03-02T18:09:00.927Z,21.77
2019-03-02T18:11:36.471Z,19.33
2019-03-02T18:14:07.619Z,20.33
2019-03-02T18:16:41.351Z,24.60
2019-03-02T18:19:09.879Z,21.90
2019-03-02T18:21:40.664Z,24.67
2019-03-02T18:24:10.575Z,21.60
2019-03-02T18:26:41.559Z,22.17
2019-03-02T18:29:11.084Z,20.97
2019-03-02T18:31:42.240Z,24.17
2019-03-02T18:34:13.391Z,24.47
2019-03-02T18:36:45.954Z,23.77
2019-03-02T18:39:14.112Z,20.30
2019-03-02T18:41:44.995Z,23.63
2019-03-02T18:44:17.767Z,23.83
2019-03-02T18:46:45.685Z,27.13
2019-03-02T18:49:22.367Z,24.10
2019-03-02T18:52:12.931Z,24.77
2019-03-02T18:54:45.126Z,23.63
2019-03-02T18:57:15.145Z,23.47
2019-03-02T18:59:45.231Z,26.33
2019-03-02T19:02:15.766Z,24.40
2019-03-02T19:04:45.920Z,23.60
2019-03-02T19:07:16.804Z,21.67
2019-03-02T19:09:46.322Z,23.13
2019-03-02T19:12:15.799Z,23.73
2019-03-02T19:14:45.322Z,24.57
2019-03-02T19:17:14.803Z,25.77
2019-03-02T19:19:44.327Z,24.27
2019-03-02T19:22:15.115Z,26.30
2019-03-02T19:24:44.839Z,30.23
2019-03-02T19:27:14.358Z,23.30
2019-03-02T19:29:43.883Z,25.60
2019-03-02T19:32:13.363Z,22.47
2019-03-02T19:34:42.811Z,23.70
2019-03-02T19:37:12.295Z,22.90
2019-03-02T19:39:41.740Z,23.43
2019-03-02T19:42:11.222Z,24.60
2019-03-02T19:44:41.445Z,22.50
2019-03-02T19:47:13.151Z,23.63
2019-03-02T19:49:42.657Z,22.80
2019-03-02T19:52:13.544Z,22.30
2019-03-02T19:54:43.062Z,23.07
2019-03-02T19:57:12.940Z,23.63
2019-03-02T19:59:42.676Z,20.97
2019-03-02T20:02:13.611Z,22.20
2019-03-02T20:04:43.071Z,23.73
2019-03-02T20:07:12.554Z,24.50
2019-03-02T20:09:42.078Z,22.23
2019-03-02T20:12:12.856Z,20.10
2019-03-02T20:14:42.384Z,22.40
2019-03-02T20:17:12.145Z,26.77
2019-03-02T20:19:41.650Z,33.17
2019-03-02T20:22:11.137Z,31.20
2019-03-02T20:24:40.651Z,28.07
2019-03-02T20:27:11.567Z,20.50
2019-03-02T20:29:41.093Z,23.10
2019-03-02T20:32:10.568Z,21.57
2019-03-02T20:34:40.090Z,21.60
2019-03-02T20:37:09.822Z,23.17
2019-03-02T20:39:39.386Z,18.70
2019-03-02T20:42:10.421Z,20.30
2019-03-02T20:44:40.031Z,18.60
2019-03-02T20:47:10.994Z,19.40
2019-03-02T20:49:40.775Z,18.17
2019-03-02T20:52:11.787Z,20.77
2019-03-02T20:54:41.498Z,19.33
2019-03-02T20:57:12.364Z,17.67
2019-03-02T20:59:42.017Z,17.00
2019-03-02T21:02:13.162Z,15.07
2019-03-02T21:04:42.638Z,16.37
2019-03-02T21:07:12.221Z,15.37
2019-03-02T21:09:41.771Z,18.97
2019-03-02T21:12:11.292Z,16.70
2019-03-02T21:14:40.775Z,19.13
2019-03-02T21:17:10.290Z,15.37
2019-03-02T21:19:39.802Z,13.80
2019-03-02T21:22:10.782Z,13.23
2019-03-02T21:24:40.323Z,14.33
2019-03-02T21:27:09.882Z,13.47
2019-03-02T21:29:39.364Z,12.63
2019-03-02T21:32:10.451Z,14.80
2019-03-02T21:34:39.858Z,13.93
2019-03-02T21:37:10.579Z,12.13
2019-03-02T21:39:39.993Z,13.10
2019-03-02T21:42:09.435Z,13.17
2019-03-02T21:44:38.848Z,11.90
2019-03-02T21:47:09.655Z,12.60
2019-03-02T21:49:39.070Z,11.77
2019-03-02T21:52:09.885Z,11.10
2019-03-02T21:54:39.295Z,11.83
2019-03-02T21:57:08.812Z,11.40
2019-03-02T21:59:38.226Z,12.27
2019-03-02T22:02:07.735Z,12.07
2019-03-02T22:04:38.974Z,12.73
2019-03-02T22:07:08.561Z,11.30
2019-03-02T22:09:37.975Z,10.00
2019-03-02T22:12:08.791Z,13.17
2019-03-02T22:14:38.207Z,15.33
2019-03-02T22:17:07.659Z,12.67
2019-03-02T22:19:37.068Z,9.13
2019-03-02T22:22:07.878Z,9.47
2019-03-02T22:24:37.359Z,12.27
2019-03-02T22:27:06.811Z,11.27
2019-03-02T22:29:36.223Z,9.80
2019-03-02T22:32:07.148Z,8.63
2019-03-02T22:34:36.559Z,9.17
2019-03-02T22:37:05.960Z,9.10
2019-03-02T22:39:35.410Z,13.77
2019-03-02T22:42:04.808Z,8.40
2019-03-02T22:44:34.242Z,9.77
2019-03-02T22:47:03.725Z,8.13
2019-03-02T22:49:33.162Z,8.70
2019-03-02T22:52:02.567Z,8.97
2019-03-02T22:54:32.033Z,6.97
2019-03-02T22:57:03.014Z,7.50
2019-03-02T22:59:32.446Z,8.50
2019-03-02T23:02:05.103Z,9.27
2019-03-02T23:04:34.685Z,6.47
2019-03-02T23:07:05.458Z,11.63
2019-03-02T23:09:34.957Z,7.50
2019-03-02T23:12:05.906Z,8.30
2019-03-02T23:14:35.456Z,6.90
2019-03-02T23:17:06.217Z,8.00
2019-03-02T23:19:35.650Z,7.87
2019-03-02T23:22:06.428Z,10.90
2019-03-02T23:24:35.934Z,7.43
2019-03-02T23:27:06.610Z,9.30
2019-03-02T23:29:36.052Z,8.97
2019-03-02T23:32:06.922Z,8.17
2019-03-02T23:34:37.381Z,17.77
2019-03-02T23:37:07.024Z,7.80
2019-03-02T23:39:36.524Z,10.70
2019-03-02T23:42:06.008Z,10.77
2019-03-02T23:44:36.999Z,12.50
2019-03-02T23:47:06.413Z,8.77
2019-03-02T23:49:35.862Z,10.60
2019-03-02T23:52:05.285Z,7.83
2019-03-02T23:54:34.809Z,11.70
2019-03-02T23:57:04.292Z,11.83
2019-03-02T23:59:34.199Z,8.60
